createdAt,value
2019-04-29T00:04:36.948Z,4.15
2019-04-29T00:10:00.598Z,2.92
2019-04-29T00:15:37.054Z,3.65
2019-04-29T00:20:58.597Z,3.47
2019-04-29T00:26:20.371Z,2.67
2019-04-29T00:31:42.659Z,3.83
2019-04-29T00:37:15.307Z,4.50
2019-04-29T00:43:05.103Z,4.40
2019-04-29T00:48:27.012Z,3.20
2019-04-29T00:53:50.619Z,4.67
2019-04-29T00:59:12.503Z,3.72
2019-04-29T01:04:34.278Z,7.78
2019-04-29T01:09:55.627Z,3.83
2019-04-29T01:15:17.321Z,5.92
2019-04-29T01:20:38.970Z,3.85
2019-04-29T01:26:05.325Z,5.05
2019-04-29T01:31:31.344Z,5.05
2019-04-29T01:36:52.892Z,4.80
2019-04-29T01:42:21.287Z,3.45
2019-04-29T01:47:42.672Z,3.50
2019-04-29T01:53:04.465Z,3.95
2019-04-29T01:58:26.415Z,5.55
2019-04-29T02:03:48.249Z,4.42
2019-04-29T02:09:14.778Z,4.80
2019-04-29T02:14:36.559Z,3.00
2019-04-29T02:19:58.428Z,4.90
2019-04-29T02:25:25.395Z,3.40
2019-04-29T02:30:48.614Z,4.00
2019-04-29T02:36:10.333Z,5.83
2019-04-29T02:41:48.433Z,5.72
2019-04-29T02:47:10.188Z,3.55
2019-04-29T02:52:32.131Z,4.12
2019-04-29T02:58:03.116Z,4.95
2019-04-29T03:03:32.510Z,6.40
2019-04-29T03:08:54.259Z,4.30
2019-04-29T03:14:16.105Z,4.15
2019-04-29T03:19:39.662Z,5.37
2019-04-29T03:25:01.677Z,4.15
2019-04-29T03:30:23.621Z,6.33
2019-04-29T03:35:45.118Z,5.70
2019-04-29T03:41:06.673Z,3.95
2019-04-29T03:46:28.217Z,4.75
2019-04-29T03:51:49.953Z,3.87
2019-04-29T03:57:13.370Z,4.65
2019-04-29T04:02:44.901Z,3.75
2019-04-29T04:08:16.485Z,4.85
2019-04-29T04:13:38.096Z,6.60
2019-04-29T04:19:07.344Z,3.58
2019-04-29T04:24:28.994Z,3.90
2019-04-29T04:29:51.138Z,4.10
2019-04-29T04:35:13.479Z,7.08
2019-04-29T04:40:39.766Z,6.65
2019-04-29T04:46:01.718Z,7.90
2019-04-29T04:51:23.303Z,3.67
2019-04-29T04:56:44.858Z,4.83
2019-04-29T05:02:06.556Z,4.22
2019-04-29T05:07:28.126Z,5.70
2019-04-29T05:12:49.822Z,4.83
2019-04-29T05:18:11.483Z,5.40
2019-04-29T05:23:33.415Z,5.30
2019-04-29T05:28:55.298Z,5.62
2019-04-29T05:34:19.442Z,4.80
2019-04-29T05:39:41.932Z,5.40
2019-04-29T05:45:18.421Z,5.65
2019-04-29T05:51:02.183Z,5.87
2019-04-29T05:56:23.807Z,5.30
2019-04-29T06:01:47.164Z,7.22
2019-04-29T06:07:09.546Z,8.08
2019-04-29T06:12:31.234Z,5.95
2019-04-29T06:17:53.339Z,5.78
2019-04-29T06:23:14.976Z,6.83
2019-04-29T06:28:36.500Z,6.87
2019-04-29T06:34:00.567Z,3.40
2019-04-29T06:39:21.745Z,3.22
2019-04-29T06:44:44.358Z,4.58
2019-04-29T06:50:07.625Z,4.55
2019-04-29T06:55:29.478Z,3.15
2019-04-29T07:00:55.929Z,4.62
2019-04-29T07:06:15.002Z,4.17
2019-04-29T07:11:38.279Z,3.42
2019-04-29T07:17:00.777Z,3.47
2019-04-29T07:22:25.844Z,5.30
2019-04-29T07:27:47.689Z,4.78
2019-04-29T07:33:09.346Z,5.95
2019-04-29T07:38:41.068Z,2.35
2019-04-29T07:43:55.261Z,4.53
2019-04-29T07:49:18.801Z,3.65
2019-04-29T07:54:41.632Z,3.72
2019-04-29T08:00:03.562Z,4.60
2019-04-29T08:05:25.282Z,8.65
2019-04-29T08:10:55.991Z,4.92
2019-04-29T08:16:12.647Z,6.15
2019-04-29T08:21:34.331Z,7.42
2019-04-29T08:26:56.028Z,4.83
2019-04-29T08:32:17.767Z,5.55
2019-04-29T08:37:40.013Z,6.05
2019-04-29T08:43:20.693Z,5.05
2019-04-29T08:48:40.022Z,7.65
2019-04-29T08:54:01.924Z,6.20
2019-04-29T08:59:24.415Z,6.58
2019-04-29T09:04:53.373Z,6.22
2019-04-29T09:10:10.636Z,6.05
2019-04-29T09:15:32.150Z,6.60
2019-04-29T09:20:53.727Z,4.87
2019-04-29T09:26:28.455Z,5.60
2019-04-29T09:31:50.160Z,6.00
2019-04-29T09:37:12.212Z,3.58
2019-04-29T09:42:50.230Z,6.30
2019-04-29T09:48:11.309Z,10.85
2019-04-29T09:53:32.882Z,8.50
2019-04-29T09:59:14.090Z,7.37
2019-04-29T10:04:55.559Z,7.80
2019-04-29T10:10:07.830Z,8.60
2019-04-29T10:15:38.359Z,8.28
2019-04-29T10:21:06.630Z,10.43
2019-04-29T10:26:28.569Z,6.17
2019-04-29T10:31:50.523Z,5.28
2019-04-29T10:37:12.713Z,6.83
2019-04-29T10:42:40.844Z,5.95
2019-04-29T10:48:21.972Z,6.33
2019-04-29T10:53:46.663Z,7.40
2019-04-29T10:59:09.150Z,9.68
2019-04-29T11:04:36.342Z,8.18
2019-04-29T11:10:01.385Z,9.58
2019-04-29T11:15:28.825Z,6.53
2019-04-29T11:20:53.676Z,8.93
2019-04-29T11:26:28.607Z,6.75
2019-04-29T11:31:54.179Z,6.10
2019-04-29T11:37:19.459Z,8.88
2019-04-29T11:42:41.938Z,8.35
2019-04-29T11:48:03.981Z,8.30
2019-04-29T11:53:26.141Z,8.23
2019-04-29T11:59:06.852Z,8.78
2019-04-29T12:04:34.668Z,6.60
2019-04-29T12:09:56.747Z,10.32
2019-04-29T12:15:45.045Z,10.08
2019-04-29T12:21:11.815Z,10.98
2019-04-29T12:26:35.628Z,11.25
2019-04-29T12:32:14.626Z,12.10
2019-04-29T12:37:54.587Z,6.87
2019-04-29T12:43:54.027Z,10.58
2019-04-29T12:49:15.338Z,11.00
2019-04-29T12:54:36.893Z,9.93
2019-04-29T12:59:58.841Z,11.73
2019-04-29T13:05:40.476Z,16.48
2019-04-29T13:11:03.939Z,13.50
2019-04-29T13:16:55.814Z,19.32
2019-04-29T13:22:17.278Z,21.12
2019-04-29T13:27:39.608Z,19.77
2019-04-29T13:33:06.283Z,18.15
2019-04-29T13:38:25.671Z,21.70
2019-04-29T13:43:47.421Z,20.30
2019-04-29T13:49:32.301Z,22.70
2019-04-29T13:54:54.127Z,22.07
2019-04-29T14:00:36.366Z,19.00
2019-04-29T14:06:04.192Z,23.62
2019-04-29T14:11:26.052Z,18.05
2019-04-29T14:16:47.609Z,24.98
2019-04-29T14:22:21.600Z,19.80
2019-04-29T14:27:33.688Z,15.32
2019-04-29T14:33:01.747Z,16.30
2019-04-29T14:38:24.221Z,16.48
2019-04-29T14:44:12.793Z,19.77
2019-04-29T14:49:39.761Z,20.23
2019-04-29T14:55:01.978Z,21.85
2019-04-29T15:00:36.164Z,21.90
2019-04-29T15:05:58.339Z,21.95
2019-04-29T15:11:31.515Z,26.85
2019-04-29T15:16:50.248Z,22.87
2019-04-29T15:22:12.363Z,26.60
2019-04-29T15:27:33.894Z,24.63
2019-04-29T15:32:58.050Z,26.35
2019-04-29T15:38:19.016Z,23.20
2019-04-29T15:43:47.223Z,21.82
2019-04-29T15:49:05.094Z,18.70
2019-04-29T15:54:26.931Z,18.50
2019-04-29T15:59:53.883Z,16.17
2019-04-29T16:05:34.284Z,21.68
2019-04-29T16:11:15.050Z,20.52
2019-04-29T16:16:37.026Z,21.35
2019-04-29T16:21:58.819Z,26.37
2019-04-29T16:27:20.306Z,20.80
2019-04-29T16:32:42.143Z,22.77
2019-04-29T16:38:11.546Z,20.17
2019-04-29T16:43:34.232Z,21.02
2019-04-29T16:48:56.192Z,20.70
2019-04-29T16:54:20.440Z,16.48
2019-04-29T16:59:43.033Z,15.85
2019-04-29T17:05:05.496Z,17.90
2019-04-29T17:10:52.549Z,19.27
2019-04-29T17:16:16.376Z,20.77
2019-04-29T17:21:38.093Z,17.77
2019-04-29T17:27:08.105Z,19.55
2019-04-29T17:32:44.396Z,21.25
2019-04-29T17:38:04.787Z,17.67
2019-04-29T17:44:01.057Z,16.10
2019-04-29T17:49:44.946Z,22.27
2019-04-29T17:55:15.212Z,23.50
2019-04-29T18:00:59.589Z,23.32
2019-04-29T18:06:28.369Z,19.17
2019-04-29T18:11:55.637Z,22.27
2019-04-29T18:17:27.242Z,27.70
2019-04-29T18:23:00.451Z,27.07
2019-04-29T18:28:22.707Z,40.70
2019-04-29T18:33:45.162Z,32.83
2019-04-29T18:39:09.563Z,33.02
2019-04-29T18:44:32.167Z,28.83
2019-04-29T18:49:53.863Z,34.43
2019-04-29T18:55:15.401Z,32.90
2019-04-29T19:00:37.569Z,33.35
2019-04-29T19:06:03.269Z,36.83
2019-04-29T19:11:30.570Z,25.57
2019-04-29T19:16:47.452Z,39.98
2019-04-29T19:22:09.578Z,38.28
2019-04-29T19:27:37.113Z,28.00
2019-04-29T19:33:00.244Z,29.90
2019-04-29T19:38:18.872Z,31.52
2019-04-29T19:43:40.728Z,30.88
2019-04-29T19:49:08.063Z,24.57
2019-04-29T19:54:28.535Z,21.52
2019-04-29T19:59:51.595Z,22.82
2019-04-29T20:05:23.890Z,22.10
2019-04-29T20:10:52.471Z,23.77
2019-04-29T20:16:43.740Z,20.88
2019-04-29T20:22:07.551Z,24.43
2019-04-29T20:27:30.976Z,20.02
2019-04-29T20:32:56.052Z,23.42
2019-04-29T20:38:18.520Z,28.27
2019-04-29T20:43:40.570Z,22.52
2019-04-29T20:49:02.595Z,19.45
2019-04-29T20:54:26.995Z,25.25
2019-04-29T20:59:50.436Z,25.72
2019-04-29T21:05:19.789Z,21.07
2019-04-29T21:10:37.926Z,22.85
2019-04-29T21:16:15.165Z,21.23
2019-04-29T21:21:41.830Z,21.95
2019-04-29T21:27:00.830Z,20.75
2019-04-29T21:32:22.515Z,18.70
2019-04-29T21:38:00.369Z,20.62
2019-04-29T21:43:26.085Z,22.37
2019-04-29T21:48:48.014Z,22.35
2019-04-29T21:54:13.708Z,25.20
2019-04-29T21:59:33.170Z,26.17
2019-04-29T22:04:55.178Z,20.15
2019-04-29T22:10:19.829Z,23.42
2019-04-29T22:15:42.411Z,27.87
2019-04-29T22:21:06.557Z,24.43
2019-04-29T22:26:28.147Z,25.40
2019-04-29T22:31:49.983Z,20.88
2019-04-29T22:37:11.915Z,26.87
2019-04-29T22:42:41.717Z,23.45
2019-04-29T22:48:14.261Z,21.65
2019-04-29T22:53:27.335Z,25.80
2019-04-29T22:58:49.275Z,22.17
2019-04-29T23:04:14.531Z,29.30
2019-04-29T23:09:36.625Z,22.27
2019-04-29T23:14:58.545Z,23.40
2019-04-29T23:20:46.678Z,22.22
2019-04-29T23:26:08.714Z,26.50
2019-04-29T23:31:30.857Z,25.02
2019-04-29T23:36:52.807Z,24.55
2019-04-29T23:42:16.215Z,21.10
2019-04-29T23:47:41.877Z,24.02
2019-04-29T23:53:01.622Z,22.93
2019-04-29T23:58:32.643Z,23.52
